Buoy 46563

sailwx.info

Track history (hours):
 
Tides and Currents Weather Stations Pressure Air Temp Water Temp Dewpoint Dewpoint Depression Visibility Wind Speed Wind Dir Waves Ship Positions

Drifting buoy 46563

Last reported at 2016-May-01 13:00 UTC. Time now 2016-May-01 17:26 UTC.
Position N 20°31' W 155°33'.

Water temperature 25.1 ° C

Date/timePositionNaut miles runAvg speedWind from/ knotsBaromVisibWave heightAir tempDewpointWater temp
2016-May-01 13:00N 20°31' W 155°33'0 0.0 25.1
2016-May-01 11:00N 20°31' W 155°33'2 0.5 25.1
2016-May-01 08:00N 20°33' W 155°33'1 0.2 25.1
2016-May-01 05:00N 20°33' W 155°34'1 1.0 25.1
2016-May-01 04:00N 20°34' W 155°34'0 0.4 25.2
2016-May-01 03:00N 20°35' W 155°34'0 0.0 25.2
2016-May-01 02:00N 20°35' W 155°34'0 0.0 25.2
2016-May-01 01:00N 20°35' W 155°34'5 0.5 25.2
2016-Apr-30 16:00N 20°38' W 155°37'0 0.0 25.0
2016-Apr-30 15:00N 20°38' W 155°37'0 0.0 25.0
2016-Apr-30 13:00N 20°38' W 155°37'1 0.9 25.0
2016-Apr-30 12:00N 20°39' W 155°38'1 0.2 25.0
2016-Apr-30 06:00N 20°40' W 155°38'0 0.1 25.1
2016-Apr-30 05:00N 20°40' W 155°38'0 0.2 25.1
2016-Apr-30 04:00N 20°41' W 155°38'1 0.7 25.1
2016-Apr-30 03:00N 20°41' W 155°38'0 0.0 25.1
2016-Apr-30 01:00N 20°41' W 155°38'5 0.6 25.2
2016-Apr-29 17:00N 20°46' W 155°40'0 0.1 25.0
2016-Apr-29 16:00N 20°46' W 155°40'2 0.8 25.0
2016-Apr-29 14:00N 20°47' W 155°41'2 0.8 25.0
2016-Apr-29 12:00N 20°47' W 155°43'1 0.6 25.0
2016-Apr-29 11:00N 20°47' W 155°42'2 0.3 25.0
2016-Apr-29 05:00N 20°48' W 155°44'0 0.5 25.1
2016-Apr-29 04:00N 20°48' W 155°44'0 0.5 25.1
2016-Apr-29 03:00N 20°49' W 155°44'0 0.5 25.1
2016-Apr-29 02:00N 20°49' W 155°44'0 0.0 25.1
2016-Apr-29 01:00N 20°49' W 155°44'0 0.1 25.1
2016-Apr-28 23:00N 20°49' W 155°44'3 0.5 25.1
2016-Apr-28 17:00N 20°52' W 155°44'1 0.7 25.0
2016-Apr-28 15:00N 20°53' W 155°44'1 0.6 25.0
2016-Apr-28 13:00N 20°54' W 155°44'1 0.3 25.0
2016-Apr-28 08:00N 20°56' W 155°45'2 0.5 25.0
2016-Apr-28 04:00N 20°57' W 155°46'0 0.2 25.1
2016-Apr-28 01:00N 20°57' W 155°46'2 0.8 25.1
2016-Apr-27 23:00N 20°58' W 155°45'2 0.5 25.1
2016-Apr-27 19:00N 21°00' W 155°44'0 0.1 25.0
2016-Apr-27 17:00N 20°60' W 155°44'1 1.3 25.0
2016-Apr-27 16:00N 21°01' W 155°44'1 1.3 25.0
2016-Apr-27 15:00N 21°02' W 155°43'0 0.0 25.0
2016-Apr-27 14:00N 21°02' W 155°43'2 1.0 25.0
2016-Apr-27 12:00N 21°04' W 155°43'1 0.1 25.0
2016-Apr-27 08:00N 21°05' W 155°43'2 0.6 25.0
2016-Apr-27 04:00N 21°07' W 155°41'0 0.2 25.1
2016-Apr-27 03:00N 21°07' W 155°41'3 1.1 25.2
2016-Apr-27 00:00N 21°10' W 155°39'0 0.0 25.2
2016-Apr-26 23:00N 21°10' W 155°39'1 0.2 25.1
2016-Apr-26 19:00N 21°10' W 155°38'0 0.0 25.0
2016-Apr-26 17:00N 21°10' W 155°38'3 0.8 25.0
2016-Apr-26 14:00N 21°13' W 155°37'0 0.0 25.0
2016-Apr-26 13:00N 21°13' W 155°37'0 0.1 25.0
2016-Apr-26 12:00N 21°12' W 155°37'3 0.6 25.1
2016-Apr-26 07:00N 21°14' W 155°34'1 0.3 25.1
2016-Apr-26 05:00N 21°14' W 155°34'1 0.7 25.1
2016-Apr-26 03:00N 21°15' W 155°32'0 0.0 25.2
2016-Apr-26 02:00N 21°15' W 155°32'1 0.6 25.2
2016-Apr-26 00:00N 21°16' W 155°31'3 0.4 25.2
2016-Apr-25 17:00N 21°18' W 155°29'0 0.3 25.0
2016-Apr-25 16:00N 21°18' W 155°28'1 0.4 25.0
2016-Apr-25 13:00N 21°19' W 155°28'4 0.5 25.0
2016-Apr-25 06:00N 21°20' W 155°24'1 0.3 25.0
2016-Apr-25 04:00N 21°19' W 155°23'0 0.4 25.0
2016-Apr-25 03:00N 21°20' W 155°23'1 0.4 25.1
2016-Apr-25 00:00N 21°20' W 155°22'3 2.7 25.1
2016-Apr-24 23:00N 21°20' W 155°19'2 0.4 25.0
2016-Apr-24 17:00N 21°21' W 155°17'1 1.0 24.9
2016-Apr-24 16:00N 21°21' W 155°16'2 0.6 24.9
2016-Apr-24 13:00N 21°21' W 155°14'3 0.6 24.9
2016-Apr-24 08:00N 21°22' W 155°11'1 0.9 25.0
2016-Apr-24 07:00N 21°23' W 155°10'1 1.1 25.0
2016-Apr-24 06:00N 21°22' W 155°09'0 0.2 25.0
2016-Apr-24 04:00N 21°22' W 155°08'0 0.0 25.0
2016-Apr-24 03:00N 21°22' W 155°08'5 5.4 25.0
2016-Apr-24 02:00N 21°21' W 155°03'4 0.6 25.0
2016-Apr-23 20:00N 21°21' W 154°59'2 0.6 25.0
2016-Apr-23 16:00N 21°21' W 154°56'0 0.0 24.9
2016-Apr-23 13:00N 21°21' W 154°56'4 2.2 24.9
2016-Apr-23 11:00N 21°20' W 154°52'0 0.0 24.9
2016-Apr-23 08:00N 21°20' W 154°52'1 1.5 25.0
2016-Apr-23 07:00N 21°19' W 154°50'1 0.6 25.0
2016-Apr-23 05:00N 21°19' W 154°49'1 1.4 25.0
2016-Apr-23 04:00N 21°18' W 154°50'5 4.6 25.0
2016-Apr-23 03:00N 21°16' W 154°45'2 0.6 25.0
2016-Apr-23 00:00N 21°17' W 154°44'3 0.8 25.1
2016-Apr-22 20:00N 21°14' W 154°42'1 1.1 25.0
2016-Apr-22 19:00N 21°13' W 154°41'3 2.9 24.9
2016-Apr-22 18:00N 21°11' W 154°39'3 1.6 24.9
2016-Apr-22 16:00N 21°09' W 154°36'0 0.2 24.9
2016-Apr-22 13:00N 21°09' W 154°36'2 0.4 24.9
2016-Apr-22 08:00N 21°07' W 154°34'1 1.2 25.0
2016-Apr-22 07:00N 21°06' W 154°34'3 1.1 24.9
2016-Apr-22 04:00N 21°03' W 154°33'1 0.6 25.0
2016-Apr-22 03:00N 21°02' W 154°33'3 1.5 25.0
2016-Apr-22 01:00N 20°60' W 154°32'0 0.0 25.0
2016-Apr-22 00:00N 20°60' W 154°32'8 2.0 25.0
2016-Apr-21 20:00N 20°52' W 154°30'0 0.0 24.9
2016-Apr-21 19:00N 20°52' W 154°30'0 0.0 24.9
2016-Apr-21 17:00N 20°52' W 154°30'1 1.0 24.9
2016-Apr-21 16:00N 20°51' W 154°29'2 1.6 24.9
2016-Apr-21 15:00N 20°50' W 154°29'0 0.0 24.9
2016-Apr-21 14:00N 20°50' W 154°29'0 0.0 24.9
2016-Apr-21 13:00N 20°50' W 154°29'   24.9
Track history (hours):
 
Tides and Currents Weather Stations Pressure Air Temp Water Temp Dewpoint Dewpoint Depression Visibility Wind Speed Wind Dir Waves Ship Positions

Drifting buoy 46563

Last reported at 2016-May-01 13:00 UTC. Time now 2016-May-01 17:26 UTC.
Position N 20°31' W 155°33'.

Water temperature 25.1 ° C

Date/timePositionNaut miles runAvg speedWind from/ knotsBaromVisibWave heightAir tempDewpointWater temp
2016-May-01 13:00N 20°31' W 155°33'0 0.0 25.1
2016-May-01 11:00N 20°31' W 155°33'2 0.5 25.1
2016-May-01 08:00N 20°33' W 155°33'1 0.2 25.1
2016-May-01 05:00N 20°33' W 155°34'1 1.0 25.1
2016-May-01 04:00N 20°34' W 155°34'0 0.4 25.2
2016-May-01 03:00N 20°35' W 155°34'0 0.0 25.2
2016-May-01 02:00N 20°35' W 155°34'0 0.0 25.2
2016-May-01 01:00N 20°35' W 155°34'5 0.5 25.2
2016-Apr-30 16:00N 20°38' W 155°37'0 0.0 25.0
2016-Apr-30 15:00N 20°38' W 155°37'0 0.0 25.0
2016-Apr-30 13:00N 20°38' W 155°37'1 0.9 25.0
2016-Apr-30 12:00N 20°39' W 155°38'1 0.2 25.0
2016-Apr-30 06:00N 20°40' W 155°38'0 0.1 25.1
2016-Apr-30 05:00N 20°40' W 155°38'0 0.2 25.1
2016-Apr-30 04:00N 20°41' W 155°38'1 0.7 25.1
2016-Apr-30 03:00N 20°41' W 155°38'0 0.0 25.1
2016-Apr-30 01:00N 20°41' W 155°38'5 0.6 25.2
2016-Apr-29 17:00N 20°46' W 155°40'0 0.1 25.0
2016-Apr-29 16:00N 20°46' W 155°40'2 0.8 25.0
2016-Apr-29 14:00N 20°47' W 155°41'2 0.8 25.0
2016-Apr-29 12:00N 20°47' W 155°43'1 0.6 25.0
2016-Apr-29 11:00N 20°47' W 155°42'2 0.3 25.0
2016-Apr-29 05:00N 20°48' W 155°44'0 0.5 25.1
2016-Apr-29 04:00N 20°48' W 155°44'0 0.5 25.1
2016-Apr-29 03:00N 20°49' W 155°44'0 0.5 25.1
2016-Apr-29 02:00N 20°49' W 155°44'0 0.0 25.1
2016-Apr-29 01:00N 20°49' W 155°44'0 0.1 25.1
2016-Apr-28 23:00N 20°49' W 155°44'3 0.5 25.1
2016-Apr-28 17:00N 20°52' W 155°44'1 0.7 25.0
2016-Apr-28 15:00N 20°53' W 155°44'1 0.6 25.0
2016-Apr-28 13:00N 20°54' W 155°44'1 0.3 25.0
2016-Apr-28 08:00N 20°56' W 155°45'2 0.5 25.0
2016-Apr-28 04:00N 20°57' W 155°46'0 0.2 25.1
2016-Apr-28 01:00N 20°57' W 155°46'2 0.8 25.1
2016-Apr-27 23:00N 20°58' W 155°45'2 0.5 25.1
2016-Apr-27 19:00N 21°00' W 155°44'0 0.1 25.0
2016-Apr-27 17:00N 20°60' W 155°44'1 1.3 25.0
2016-Apr-27 16:00N 21°01' W 155°44'1 1.3 25.0
2016-Apr-27 15:00N 21°02' W 155°43'0 0.0 25.0
2016-Apr-27 14:00N 21°02' W 155°43'2 1.0 25.0
2016-Apr-27 12:00N 21°04' W 155°43'1 0.1 25.0
2016-Apr-27 08:00N 21°05' W 155°43'2 0.6 25.0
2016-Apr-27 04:00N 21°07' W 155°41'0 0.2 25.1
2016-Apr-27 03:00N 21°07' W 155°41'3 1.1 25.2
2016-Apr-27 00:00N 21°10' W 155°39'0 0.0 25.2
2016-Apr-26 23:00N 21°10' W 155°39'1 0.2 25.1
2016-Apr-26 19:00N 21°10' W 155°38'0 0.0 25.0
2016-Apr-26 17:00N 21°10' W 155°38'3 0.8 25.0
2016-Apr-26 14:00N 21°13' W 155°37'0 0.0 25.0
2016-Apr-26 13:00N 21°13' W 155°37'0 0.1 25.0
2016-Apr-26 12:00N 21°12' W 155°37'3 0.6 25.1
2016-Apr-26 07:00N 21°14' W 155°34'1 0.3 25.1
2016-Apr-26 05:00N 21°14' W 155°34'1 0.7 25.1
2016-Apr-26 03:00N 21°15' W 155°32'0 0.0 25.2
2016-Apr-26 02:00N 21°15' W 155°32'1 0.6 25.2
2016-Apr-26 00:00N 21°16' W 155°31'3 0.4 25.2
2016-Apr-25 17:00N 21°18' W 155°29'0 0.3 25.0
2016-Apr-25 16:00N 21°18' W 155°28'1 0.4 25.0
2016-Apr-25 13:00N 21°19' W 155°28'4 0.5 25.0
2016-Apr-25 06:00N 21°20' W 155°24'1 0.3 25.0
2016-Apr-25 04:00N 21°19' W 155°23'0 0.4 25.0
2016-Apr-25 03:00N 21°20' W 155°23'1 0.4 25.1
2016-Apr-25 00:00N 21°20' W 155°22'3 2.7 25.1
2016-Apr-24 23:00N 21°20' W 155°19'2 0.4 25.0
2016-Apr-24 17:00N 21°21' W 155°17'1 1.0 24.9
2016-Apr-24 16:00N 21°21' W 155°16'2 0.6 24.9
2016-Apr-24 13:00N 21°21' W 155°14'3 0.6 24.9
2016-Apr-24 08:00N 21°22' W 155°11'1 0.9 25.0
2016-Apr-24 07:00N 21°23' W 155°10'1 1.1 25.0
2016-Apr-24 06:00N 21°22' W 155°09'0 0.2 25.0
2016-Apr-24 04:00N 21°22' W 155°08'0 0.0 25.0
2016-Apr-24 03:00N 21°22' W 155°08'5 5.4 25.0
2016-Apr-24 02:00N 21°21' W 155°03'4 0.6 25.0
2016-Apr-23 20:00N 21°21' W 154°59'2 0.6 25.0
2016-Apr-23 16:00N 21°21' W 154°56'0 0.0 24.9
2016-Apr-23 13:00N 21°21' W 154°56'4 2.2 24.9
2016-Apr-23 11:00N 21°20' W 154°52'0 0.0 24.9
2016-Apr-23 08:00N 21°20' W 154°52'1 1.5 25.0
2016-Apr-23 07:00N 21°19' W 154°50'1 0.6 25.0
2016-Apr-23 05:00N 21°19' W 154°49'1 1.4 25.0
2016-Apr-23 04:00N 21°18' W 154°50'5 4.6 25.0
2016-Apr-23 03:00N 21°16' W 154°45'2 0.6 25.0
2016-Apr-23 00:00N 21°17' W 154°44'3 0.8 25.1
2016-Apr-22 20:00N 21°14' W 154°42'1 1.1 25.0
2016-Apr-22 19:00N 21°13' W 154°41'3 2.9 24.9
2016-Apr-22 18:00N 21°11' W 154°39'3 1.6 24.9
2016-Apr-22 16:00N 21°09' W 154°36'0 0.2 24.9
2016-Apr-22 13:00N 21°09' W 154°36'2 0.4 24.9
2016-Apr-22 08:00N 21°07' W 154°34'1 1.2 25.0
2016-Apr-22 07:00N 21°06' W 154°34'3 1.1 24.9
2016-Apr-22 04:00N 21°03' W 154°33'1 0.6 25.0
2016-Apr-22 03:00N 21°02' W 154°33'3 1.5 25.0
2016-Apr-22 01:00N 20°60' W 154°32'0 0.0 25.0
2016-Apr-22 00:00N 20°60' W 154°32'8 2.0 25.0
2016-Apr-21 20:00N 20°52' W 154°30'0 0.0 24.9
2016-Apr-21 19:00N 20°52' W 154°30'0 0.0 24.9
2016-Apr-21 17:00N 20°52' W 154°30'1 1.0 24.9
2016-Apr-21 16:00N 20°51' W 154°29'2 1.6 24.9
2016-Apr-21 15:00N 20°50' W 154°29'0 0.0 24.9
2016-Apr-21 14:00N 20°50' W 154°29'0 0.0 24.9
2016-Apr-21 13:00N 20°50' W 154°29'   24.9

Dump ship's entire track history